createdAt,value
2023-02-17T00:00:05.978Z,1.6
2023-02-17T00:01:06.093Z,1.6
2023-02-17T00:02:06.030Z,1.6
2023-02-17T00:03:06.481Z,1.6
2023-02-17T00:04:06.324Z,1.6
2023-02-17T00:05:05.930Z,1.6
2023-02-17T00:06:07.281Z,1.6
2023-02-17T00:07:06.313Z,1.6
2023-02-17T00:08:06.003Z,1.6
2023-02-17T00:09:05.956Z,1.6
2023-02-17T00:10:06.439Z,1.6
2023-02-17T00:11:06.366Z,1.6
2023-02-17T00:12:06.213Z,1.6
2023-02-17T00:13:06.196Z,1.6
2023-02-17T00:14:05.870Z,1.6
2023-02-17T00:15:06.608Z,1
2023-02-17T00:16:07.117Z,1.6
2023-02-17T00:17:05.798Z,1.6
2023-02-17T00:18:05.806Z,1.6
2023-02-17T00:19:06.446Z,1.7
2023-02-17T00:20:06.062Z,1.7
2023-02-17T00:21:05.919Z,1.7
2023-02-17T00:22:06.677Z,1.7
2023-02-17T00:23:06.354Z,1.7
2023-02-17T00:24:06.078Z,1.7
2023-02-17T00:25:05.901Z,1.7
2023-02-17T00:26:07.007Z,1.7
2023-02-17T00:27:05.965Z,1.7
2023-02-17T00:28:06.657Z,1.7
2023-02-17T00:29:06.422Z,1.7
2023-02-17T00:30:06.362Z,1.7
2023-02-17T00:31:06.628Z,1.7
2023-02-17T00:32:06.446Z,1.7
2023-02-17T00:33:05.916Z,1.7
2023-02-17T00:34:06.576Z,1.7
2023-02-17T00:35:06.395Z,1.7
2023-02-17T00:36:06.827Z,1.7
2023-02-17T00:37:05.600Z,1.7
2023-02-17T00:38:06.507Z,1.7
2023-02-17T00:39:06.264Z,1.7
2023-02-17T00:40:05.708Z,1.7
2023-02-17T00:41:06.592Z,1.8
2023-02-17T00:42:06.096Z,1.8
2023-02-17T00:43:05.883Z,1.8
2023-02-17T00:44:06.752Z,1.8
2023-02-17T00:45:06.298Z,1.8
2023-02-17T00:46:06.954Z,1.8
2023-02-17T00:47:05.864Z,1.8
2023-02-17T00:48:05.905Z,1.8
2023-02-17T00:49:06.370Z,1.8
2023-02-17T00:50:06.209Z,1.8
2023-02-17T00:51:05.903Z,1.8
2023-02-17T00:52:06.508Z,1
2023-02-17T00:53:06.144Z,1.8
2023-02-17T00:54:05.772Z,1
2023-02-17T00:55:05.609Z,1.8
2023-02-17T00:56:07.009Z,1
2023-02-17T00:57:06.194Z,1
2023-02-17T00:58:05.809Z,1.8
2023-02-17T00:59:06.683Z,1
2023-02-17T01:00:06.263Z,1.8
2023-02-17T01:01:06.123Z,1.8
2023-02-17T01:02:06.156Z,1
2023-02-17T01:03:05.867Z,1.8
2023-02-17T01:04:06.534Z,1.8
2023-02-17T01:05:06.249Z,1
2023-02-17T01:06:06.510Z,1.8
2023-02-17T01:07:06.588Z,1.8
2023-02-17T01:08:06.546Z,1.8
2023-02-17T01:09:06.246Z,1.8
2023-02-17T01:10:06.125Z,1.8
2023-02-17T01:11:05.662Z,1.8
2023-02-17T01:12:06.360Z,1.9
2023-02-17T01:13:06.081Z,1.8
2023-02-17T01:14:05.772Z,1
2023-02-17T01:15:06.507Z,1.8
2023-02-17T01:16:06.941Z,1.8
2023-02-17T01:17:05.975Z,1.8
2023-02-17T01:18:06.466Z,2
2023-02-17T01:19:06.111Z,1.9
2023-02-17T01:20:06.031Z,1.9
2023-02-17T01:21:06.439Z,1.9
2023-02-17T01:22:06.059Z,1.9
2023-02-17T01:23:06.437Z,1.9
2023-02-17T01:24:06.318Z,1.9
2023-02-17T01:25:06.331Z,1.9
2023-02-17T01:26:07.358Z,1.9
2023-02-17T01:27:06.528Z,1.9
2023-02-17T01:28:06.345Z,2
2023-02-17T01:29:06.026Z,2
2023-02-17T01:30:06.669Z,1.9
2023-02-17T01:31:06.573Z,1.9
2023-02-17T01:32:05.992Z,2
2023-02-17T01:33:06.324Z,2
2023-02-17T01:34:06.100Z,2
2023-02-17T01:35:05.758Z,2
2023-02-17T01:36:07.003Z,2
2023-02-17T01:37:06.181Z,2
2023-02-17T01:38:05.776Z,2
2023-02-17T01:39:06.435Z,2
2023-02-17T01:40:06.084Z,2
2023-02-17T01:41:05.703Z,2
2023-02-17T01:42:06.548Z,2
2023-02-17T01:43:06.146Z,2
2023-02-17T01:44:05.778Z,2
2023-02-17T01:45:06.464Z,2
2023-02-17T01:46:07.300Z,2
2023-02-17T01:47:06.350Z,2
2023-02-17T01:48:05.991Z,2
2023-02-17T01:49:05.831Z,2
2023-02-17T01:50:06.396Z,2
2023-02-17T01:51:06.258Z,2
2023-02-17T01:52:05.886Z,2.1
2023-02-17T01:53:06.635Z,2.1
2023-02-17T01:54:06.594Z,2.1
2023-02-17T01:55:06.035Z,2.1
2023-02-17T01:56:06.480Z,2.1
2023-02-17T01:57:06.612Z,2.1
2023-02-17T01:58:06.250Z,2.1
2023-02-17T01:59:06.083Z,2.1
2023-02-17T02:00:05.868Z,2.1
2023-02-17T02:01:06.465Z,2
2023-02-17T02:02:06.494Z,2.1
2023-02-17T02:03:06.005Z,2.1
2023-02-17T02:04:06.750Z,2.1
2023-02-17T02:05:06.364Z,2
2023-02-17T02:06:06.829Z,2.1
2023-02-17T02:07:05.730Z,2.1
2023-02-17T02:08:05.696Z,2
2023-02-17T02:09:06.680Z,2.1
2023-02-17T02:10:06.271Z,2.1
2023-02-17T02:11:05.831Z,2.1
2023-02-17T02:12:06.568Z,2.1
2023-02-17T02:13:06.221Z,2.1
2023-02-17T02:14:06.034Z,2.1
2023-02-17T02:15:05.809Z,2.1
2023-02-17T02:16:07.206Z,2.1
2023-02-17T02:17:06.338Z,2.1
2023-02-17T02:18:05.878Z,2.1
2023-02-17T02:19:05.978Z,2.1
2023-02-17T02:20:06.606Z,2.1
2023-02-17T02:21:06.031Z,2.1
2023-02-17T02:22:05.995Z,2.1
2023-02-17T02:23:06.840Z,2.1
2023-02-17T02:24:06.365Z,2.1
2023-02-17T02:25:06.076Z,2
2023-02-17T02:26:06.458Z,2.1
2023-02-17T02:27:06.330Z,2.1
2023-02-17T02:28:06.170Z,2.1
2023-02-17T02:29:05.877Z,2.1
2023-02-17T02:30:06.818Z,2.1
2023-02-17T02:31:06.358Z,2.1
2023-02-17T02:32:06.018Z,2.1
2023-02-17T02:33:05.662Z,2.1
2023-02-17T02:34:06.382Z,2.1
2023-02-17T02:35:06.393Z,2.1
2023-02-17T02:36:06.688Z,2
2023-02-17T02:37:05.898Z,2
2023-02-17T02:38:09.023Z,2.1
2023-02-17T02:39:06.191Z,2.1
2023-02-17T02:40:05.911Z,2
2023-02-17T02:41:06.728Z,2
2023-02-17T02:42:06.270Z,2
2023-02-17T02:43:05.846Z,2
2023-02-17T02:44:05.572Z,2
2023-02-17T02:45:06.625Z,2
2023-02-17T02:46:06.690Z,2
2023-02-17T02:47:05.825Z,2
2023-02-17T02:48:06.464Z,2
2023-02-17T02:49:06.144Z,2
2023-02-17T02:50:05.784Z,2
2023-02-17T02:51:06.706Z,2
2023-02-17T02:52:06.110Z,2
2023-02-17T02:53:05.943Z,2
2023-02-17T02:54:07.080Z,2
2023-02-17T02:55:06.391Z,2
2023-02-17T02:56:06.674Z,2
2023-02-17T02:57:05.637Z,2
2023-02-17T02:58:06.520Z,2
2023-02-17T02:59:06.160Z,2
2023-02-17T03:00:05.791Z,2
2023-02-17T03:01:06.906Z,2
2023-02-17T03:02:06.235Z,2
2023-02-17T03:03:05.931Z,2
2023-02-17T03:04:06.721Z,2
2023-02-17T03:05:06.110Z,2
2023-02-17T03:06:06.572Z,2
2023-02-17T03:07:05.679Z,2
2023-02-17T03:08:06.472Z,2.1
2023-02-17T03:09:05.962Z,2
2023-02-17T03:10:05.897Z,2.1
2023-02-17T03:11:06.568Z,2.1
2023-02-17T03:12:06.152Z,2.1
2023-02-17T03:13:06.034Z,2.1
2023-02-17T03:14:05.626Z,2.1
2023-02-17T03:15:06.427Z,2.1
2023-02-17T03:16:06.401Z,2.1
2023-02-17T03:17:06.597Z,2.1
2023-02-17T03:18:06.348Z,2.1
2023-02-17T03:19:06.037Z,2
2023-02-17T03:20:05.730Z,2.1
2023-02-17T03:21:06.561Z,2
2023-02-17T03:22:06.171Z,2
2023-02-17T03:23:05.872Z,2
2023-02-17T03:24:06.519Z,2
2023-02-17T03:25:06.110Z,2
2023-02-17T03:26:06.480Z,2
2023-02-17T03:27:06.558Z,2
2023-02-17T03:28:06.299Z,2
2023-02-17T03:29:05.918Z,2
2023-02-17T03:30:06.629Z,2
2023-02-17T03:31:06.128Z,2
2023-02-17T03:32:05.887Z,2
2023-02-17T03:33:06.542Z,2
2023-02-17T03:34:06.191Z,2
2023-02-17T03:35:05.998Z,2
2023-02-17T03:36:07.198Z,2
2023-02-17T03:37:06.111Z,2
2023-02-17T03:38:05.865Z,2
2023-02-17T03:39:06.451Z,2
2023-02-17T03:40:06.048Z,2
2023-02-17T03:41:05.805Z,2
2023-02-17T03:42:06.555Z,2
2023-02-17T03:43:06.266Z,2.1
2023-02-17T03:44:06.057Z,2.1
2023-02-17T03:45:06.732Z,2.1
2023-02-17T03:46:06.757Z,2.1
2023-02-17T03:47:05.985Z,2.1
2023-02-17T03:48:05.717Z,2.1
2023-02-17T03:49:06.377Z,2.1
2023-02-17T03:50:06.107Z,2.2
2023-02-17T03:51:05.882Z,2.2
2023-02-17T03:52:06.667Z,2.3
2023-02-17T03:53:06.019Z,2.4
2023-02-17T03:54:05.785Z,2.4
2023-02-17T03:55:06.566Z,2.5
2023-02-17T03:56:06.922Z,2.5
2023-02-17T03:57:06.123Z,2.5
2023-02-17T03:58:05.501Z,2.6
2023-02-17T03:59:06.288Z,2.6
2023-02-17T04:00:06.069Z,2.6
2023-02-17T04:01:06.829Z,2.6
2023-02-17T04:02:06.324Z,2.7
2023-02-17T04:03:05.719Z,2.7
2023-02-17T04:04:06.608Z,2.8
2023-02-17T04:05:06.403Z,2.9
2023-02-17T04:06:06.892Z,2.9
2023-02-17T04:07:05.804Z,3
2023-02-17T04:08:06.506Z,3
2023-02-17T04:09:06.083Z,3.1
2023-02-17T04:10:11.463Z,3.2
2023-02-17T04:11:06.730Z,5
2023-02-17T04:12:06.490Z,3.2
2023-02-17T04:13:06.225Z,3.3
2023-02-17T04:14:06.097Z,3.3
2023-02-17T04:15:06.401Z,3.3
2023-02-17T04:16:06.356Z,3.4
2023-02-17T04:17:06.407Z,3.4
2023-02-17T04:18:06.082Z,3.4
2023-02-17T04:19:05.917Z,5
2023-02-17T04:20:06.538Z,3.5
2023-02-17T04:21:06.031Z,3.5
2023-02-17T04:22:06.162Z,5
2023-02-17T04:23:05.985Z,3.6
2023-02-17T04:24:06.593Z,3.6
2023-02-17T04:25:06.174Z,3.7
2023-02-17T04:26:06.273Z,5
2023-02-17T04:27:06.495Z,3.8
2023-02-17T04:28:06.219Z,3.8
2023-02-17T04:29:06.021Z,3.9
2023-02-17T04:30:06.811Z,3.9
2023-02-17T04:31:06.345Z,4
2023-02-17T04:32:06.913Z,4
2023-02-17T04:33:06.189Z,4
2023-02-17T04:34:06.137Z,5
2023-02-17T04:35:05.794Z,5
2023-02-17T04:36:07.307Z,4.2
2023-02-17T04:37:06.381Z,4.2
2023-02-17T04:38:05.996Z,4.3
2023-02-17T04:39:06.650Z,4.3
2023-02-17T04:40:06.411Z,4.3
2023-02-17T04:41:06.018Z,4.4
2023-02-17T04:42:05.639Z,4.4
2023-02-17T04:43:06.231Z,4.4
2023-02-17T04:44:05.938Z,4.5
2023-02-17T04:45:05.691Z,4.5
2023-02-17T04:46:07.386Z,5
2023-02-17T04:47:05.927Z,4.5
2023-02-17T04:48:05.845Z,4.6
2023-02-17T04:49:06.428Z,4.6
2023-02-17T04:50:06.275Z,4.6
2023-02-17T04:51:05.927Z,4.7
2023-02-17T04:52:06.655Z,4.7
2023-02-17T04:53:06.158Z,4.8
2023-02-17T04:54:06.019Z,4.8
2023-02-17T04:55:05.787Z,4.8
2023-02-17T04:56:07.007Z,4.8
2023-02-17T04:57:06.067Z,4.8
2023-02-17T04:58:06.578Z,6
2023-02-17T04:59:06.384Z,4.8
2023-02-17T05:00:06.265Z,4.9
2023-02-17T05:01:06.274Z,4.9
2023-02-17T05:02:05.937Z,5
2023-02-17T05:03:05.793Z,5
2023-02-17T05:04:06.307Z,5
2023-02-17T05:05:06.517Z,6
2023-02-17T05:06:06.731Z,5
2023-02-17T05:07:05.587Z,5
2023-02-17T05:08:06.537Z,5.1
2023-02-17T05:09:05.953Z,5
2023-02-17T05:10:05.855Z,5.1
2023-02-17T05:11:06.412Z,5.1
2023-02-17T05:12:06.244Z,6
2023-02-17T05:13:06.073Z,5.1
2023-02-17T05:14:06.576Z,5.2
2023-02-17T05:15:06.342Z,5.2
2023-02-17T05:16:06.686Z,5.2
2023-02-17T05:17:05.742Z,5.2
2023-02-17T05:18:06.362Z,5.2
2023-02-17T05:19:05.977Z,5.2
2023-02-17T05:20:05.754Z,5.3
2023-02-17T05:21:06.320Z,5.3
2023-02-17T05:22:06.137Z,5.3
2023-02-17T05:23:06.010Z,5.3
2023-02-17T05:24:05.850Z,5.3
2023-02-17T05:25:06.234Z,5.3
2023-02-17T05:26:06.864Z,5.3
2023-02-17T05:27:05.914Z,5.4
2023-02-17T05:28:06.621Z,5.3
2023-02-17T05:29:06.071Z,5.4
2023-02-17T05:30:06.074Z,5.4
2023-02-17T05:31:05.872Z,5.3
2023-02-17T05:32:06.778Z,5.4
2023-02-17T05:33:06.330Z,6
2023-02-17T05:34:05.946Z,5.4
2023-02-17T05:35:05.594Z,5.4
2023-02-17T05:36:07.139Z,5.4
2023-02-17T05:37:05.840Z,5.5
2023-02-17T05:38:05.684Z,5.4
2023-02-17T05:39:06.409Z,5.5
2023-02-17T05:40:06.048Z,5.5
2023-02-17T05:41:05.826Z,5.5
2023-02-17T05:42:06.538Z,5.6
2023-02-17T05:43:06.160Z,5.6
2023-02-17T05:44:05.892Z,5.6
2023-02-17T05:45:06.528Z,5.6
2023-02-17T05:46:06.660Z,5.6
2023-02-17T05:47:05.816Z,6
2023-02-17T05:48:05.613Z,5.6
2023-02-17T05:49:06.443Z,5.6
2023-02-17T05:50:06.174Z,5.6
2023-02-17T05:51:05.939Z,5.7
2023-02-17T05:52:06.545Z,5.7
2023-02-17T05:53:06.244Z,5.7
2023-02-17T05:54:05.848Z,5.7
2023-02-17T05:55:06.767Z,5.8
2023-02-17T05:56:07.222Z,5.7
2023-02-17T05:57:06.129Z,5.7
2023-02-17T05:58:05.813Z,5.8
2023-02-17T05:59:06.315Z,5.8
2023-02-17T06:00:06.098Z,5.8
2023-02-17T06:01:06.363Z,5.8
2023-02-17T06:02:05.930Z,5.8
2023-02-17T06:03:06.891Z,5.8
2023-02-17T06:04:06.456Z,5.8
2023-02-17T06:05:06.457Z,5.8
2023-02-17T06:06:06.134Z,5.8
2023-02-17T06:07:06.005Z,5.8
2023-02-17T06:08:06.711Z,7
2023-02-17T06:09:06.344Z,5.8
2023-02-17T06:10:06.095Z,5.8
2023-02-17T06:11:05.884Z,5.9
2023-02-17T06:12:06.678Z,5.9
2023-02-17T06:13:06.362Z,5.9
2023-02-17T06:14:06.196Z,5.9
2023-02-17T06:15:05.907Z,5.9
2023-02-17T06:16:07.418Z,5.9
2023-02-17T06:17:06.730Z,6
2023-02-17T06:18:06.329Z,6
2023-02-17T06:19:05.909Z,6
2023-02-17T06:20:06.366Z,6
2023-02-17T06:21:06.333Z,6
2023-02-17T06:22:05.731Z,6
2023-02-17T06:23:06.496Z,7
2023-02-17T06:24:06.404Z,6.1
2023-02-17T06:25:05.918Z,6.1
2023-02-17T06:26:07.333Z,6.1
2023-02-17T06:27:06.286Z,6.1
2023-02-17T06:28:05.990Z,6.1
2023-02-17T06:29:06.894Z,7
2023-02-17T06:30:06.404Z,6.2
2023-02-17T06:31:06.653Z,6.1
2023-02-17T06:32:06.171Z,7
2023-02-17T06:33:06.584Z,7
2023-02-17T06:34:08.706Z,6.2
2023-02-17T06:35:06.002Z,6.2
2023-02-17T06:36:07.433Z,6.3
2023-02-17T06:37:06.319Z,6.3
2023-02-17T06:38:06.179Z,6.3
2023-02-17T06:39:05.761Z,6.3
2023-02-17T06:40:06.351Z,6.3
2023-02-17T06:41:06.200Z,6.4
2023-02-17T06:42:05.993Z,6.4
2023-02-17T06:43:05.742Z,6.4
2023-02-17T06:44:06.321Z,7
2023-02-17T06:45:06.014Z,6.4
2023-02-17T06:46:07.348Z,6.5
2023-02-17T06:47:06.016Z,7
2023-02-17T06:48:05.873Z,6.5
2023-02-17T06:49:06.579Z,6.5
2023-02-17T06:50:06.030Z,6.6
2023-02-17T06:51:05.805Z,6.6
2023-02-17T06:52:06.524Z,6.6
2023-02-17T06:53:06.205Z,6.6
2023-02-17T06:54:05.934Z,6.6
2023-02-17T06:55:06.720Z,6.7
2023-02-17T06:56:07.060Z,6.7
2023-02-17T06:57:05.974Z,6.7
2023-02-17T06:58:05.785Z,6.7
2023-02-17T06:59:06.628Z,6.7
2023-02-17T07:00:06.254Z,6.8
2023-02-17T07:01:06.611Z,6.8
2023-02-17T07:02:07.271Z,6.8
2023-02-17T07:03:06.210Z,6.8
2023-02-17T07:04:06.679Z,6.8
2023-02-17T07:05:06.354Z,6.8
2023-02-17T07:06:06.458Z,6.8
2023-02-17T07:07:06.499Z,6.9
2023-02-17T07:08:06.224Z,8
2023-02-17T07:09:05.792Z,6.9
2023-02-17T07:10:06.744Z,7
2023-02-17T07:11:06.438Z,7
2023-02-17T07:12:06.000Z,7.1
2023-02-17T07:13:05.830Z,7.1
2023-02-17T07:14:06.572Z,7.1
2023-02-17T07:15:06.172Z,7.2
2023-02-17T07:16:07.080Z,7.2
2023-02-17T07:17:06.122Z,7.2
2023-02-17T07:18:05.895Z,7.2
2023-02-17T07:19:06.600Z,8
2023-02-17T07:20:06.394Z,8
2023-02-17T07:21:06.169Z,7.4
2023-02-17T07:22:05.579Z,7.4
2023-02-17T07:23:06.886Z,7.4
2023-02-17T07:24:06.360Z,7.5
2023-02-17T07:25:05.963Z,7.4
2023-02-17T07:26:06.276Z,7.5
2023-02-17T07:27:06.237Z,7.5
2023-02-17T07:28:06.191Z,7.6
2023-02-17T07:29:05.838Z,8
2023-02-17T07:30:06.843Z,7.6
2023-02-17T07:31:06.106Z,7.6
2023-02-17T07:32:06.889Z,7.6
2023-02-17T07:33:09.044Z,7.7
2023-02-17T07:34:06.238Z,7.7
2023-02-17T07:35:06.075Z,7.7
2023-02-17T07:36:06.374Z,7.7
2023-02-17T07:37:06.391Z,7.7
2023-02-17T07:38:06.229Z,7.7
2023-02-17T07:39:05.926Z,7.8
2023-02-17T07:40:05.782Z,7.8
2023-02-17T07:41:06.488Z,8
2023-02-17T07:42:06.077Z,7.8
2023-02-17T07:43:05.834Z,8
2023-02-17T07:44:06.509Z,7.9
2023-02-17T07:45:06.223Z,8
2023-02-17T07:46:06.570Z,8
2023-02-17T07:47:05.840Z,8
2023-02-17T07:48:06.430Z,8
2023-02-17T07:49:06.331Z,8.1
2023-02-17T07:50:06.172Z,8
2023-02-17T07:51:05.867Z,8.1
2023-02-17T07:52:09.275Z,8.1
2023-02-17T07:53:06.083Z,8.2
2023-02-17T07:54:06.492Z,8.2
2023-02-17T07:55:06.119Z,9
2023-02-17T07:56:06.761Z,8.3
2023-02-17T07:57:06.817Z,8.3
2023-02-17T07:58:06.274Z,8.4
2023-02-17T07:59:06.392Z,8.4
2023-02-17T08:00:06.189Z,8.4
2023-02-17T08:01:05.934Z,8.4
2023-02-17T08:02:06.950Z,8.5
2023-02-17T08:03:06.356Z,8.5
2023-02-17T08:04:06.254Z,8.6
2023-02-17T08:05:06.752Z,8.6
2023-02-17T08:06:07.458Z,8.6
2023-02-17T08:07:06.200Z,8.7
2023-02-17T08:08:05.756Z,8.7
2023-02-17T08:09:06.637Z,8.8
2023-02-17T08:10:06.426Z,9
2023-02-17T08:11:06.792Z,8.8
2023-02-17T08:12:05.864Z,8.9
2023-02-17T08:13:05.724Z,8.9
2023-02-17T08:14:06.441Z,9
2023-02-17T08:15:06.299Z,9
2023-02-17T08:16:06.636Z,9.1
2023-02-17T08:17:05.763Z,9.2
2023-02-17T08:18:06.868Z,9.2
2023-02-17T08:19:08.711Z,9.2
2023-02-17T08:20:12.189Z,9.2
2023-02-17T08:21:07.365Z,9.3
2023-02-17T08:22:06.457Z,9.3
2023-02-17T08:23:06.044Z,9.4
2023-02-17T08:24:05.925Z,9.4
2023-02-17T08:25:06.589Z,9.5
2023-02-17T08:26:07.084Z,9.5
2023-02-17T08:27:05.880Z,9.5
2023-02-17T08:28:06.550Z,9.6
2023-02-17T08:29:06.169Z,9.6
2023-02-17T08:30:06.274Z,10
2023-02-17T08:31:06.969Z,9.7
2023-02-17T08:32:06.502Z,9.7
2023-02-17T08:33:06.681Z,9.8
2023-02-17T08:34:06.452Z,9.8
2023-02-17T08:35:06.131Z,9.8
2023-02-17T08:36:06.287Z,9.8
2023-02-17T08:37:06.769Z,9.9
2023-02-17T08:38:06.233Z,10
2023-02-17T08:39:05.915Z,10
2023-02-17T08:40:06.621Z,10
2023-02-17T08:41:06.594Z,10.1
2023-02-17T08:42:06.195Z,10.1
2023-02-17T08:43:07.831Z,10.2
2023-02-17T08:44:05.940Z,10.3
2023-02-17T08:45:06.541Z,10.2
2023-02-17T08:46:07.108Z,10.2
2023-02-17T08:47:06.374Z,10.2
2023-02-17T08:48:06.387Z,10.2
2023-02-17T08:49:06.024Z,10.3
2023-02-17T08:50:06.542Z,10
2023-02-17T08:51:06.565Z,10.3
2023-02-17T08:52:06.234Z,10.4
2023-02-17T08:53:06.007Z,10.4
2023-02-17T08:54:05.819Z,10.4
2023-02-17T08:55:06.637Z,10.4
2023-02-17T08:56:07.167Z,10.4
2023-02-17T08:57:06.244Z,10.4
2023-02-17T08:58:05.991Z,10.5
2023-02-17T08:59:06.623Z,10.5
2023-02-17T09:00:08.396Z,10.5
2023-02-17T09:01:06.355Z,10.6
2023-02-17T09:02:06.138Z,10.6
2023-02-17T09:03:06.568Z,10.6
2023-02-17T09:04:06.295Z,10.6
2023-02-17T09:05:06.267Z,10.7
2023-02-17T09:06:06.180Z,10.6
2023-02-17T09:07:06.717Z,10.7
2023-02-17T09:08:06.499Z,10.7
2023-02-17T09:09:05.909Z,10.7
2023-02-17T09:10:05.788Z,10.8
2023-02-17T09:11:07.759Z,10.8
2023-02-17T09:12:05.944Z,10.8
2023-02-17T09:13:06.050Z,10.8
2023-02-17T09:14:06.725Z,10.9
2023-02-17T09:15:06.305Z,10.8
2023-02-17T09:16:07.305Z,10.9
2023-02-17T09:17:06.169Z,10.9
2023-02-17T09:18:06.129Z,10.9
2023-02-17T09:19:05.858Z,11
2023-02-17T09:20:24.219Z,11
2023-02-17T09:21:05.860Z,11
2023-02-17T09:22:06.736Z,11
2023-02-17T09:23:05.898Z,11.1
2023-02-17T09:24:06.711Z,11.1
2023-02-17T09:25:06.557Z,11.1
2023-02-17T09:26:06.683Z,11.1
2023-02-17T09:27:05.720Z,11.2
2023-02-17T09:28:06.106Z,11.2
2023-02-17T09:29:06.303Z,11
2023-02-17T09:30:05.728Z,11.3
2023-02-17T09:31:06.399Z,11.3
2023-02-17T09:32:06.686Z,11.3
2023-02-17T09:33:05.611Z,11.3
2023-02-17T09:34:06.527Z,11.4
2023-02-17T09:35:06.266Z,11.4
2023-02-17T09:36:06.302Z,11.4
2023-02-17T09:37:06.636Z,11.4
2023-02-17T09:38:06.343Z,11.4
2023-02-17T09:39:06.132Z,11.4
2023-02-17T09:40:06.651Z,11.4
2023-02-17T09:41:06.373Z,11.6
2023-02-17T09:42:06.051Z,11.6
2023-02-17T09:43:05.860Z,11.7
2023-02-17T09:44:06.493Z,11.8
2023-02-17T09:45:06.040Z,11.9
2023-02-17T09:46:06.745Z,11.9
2023-02-17T09:47:07.535Z,11.9
2023-02-17T09:48:06.526Z,12
2023-02-17T09:49:06.213Z,12
2023-02-17T09:50:05.640Z,12
2023-02-17T09:51:06.280Z,12
2023-02-17T09:52:06.019Z,12
2023-02-17T09:53:06.892Z,12.1
2023-02-17T09:54:06.413Z,12.4
2023-02-17T09:55:06.182Z,12.3
2023-02-17T09:56:07.694Z,12.3
2023-02-17T09:57:06.531Z,12.4
2023-02-17T09:58:06.106Z,12.4
2023-02-17T09:59:06.668Z,12.4
2023-02-17T10:00:06.325Z,12.4
2023-02-17T10:01:06.181Z,12.4
2023-02-17T10:02:05.774Z,12.4
2023-02-17T10:03:06.866Z,12.4
2023-02-17T10:04:06.508Z,12
2023-02-17T10:05:06.209Z,12.4
2023-02-17T10:06:07.107Z,12.4
2023-02-17T10:07:06.213Z,12.4
2023-02-17T10:08:06.214Z,12.4
2023-02-17T10:09:05.958Z,12.4
2023-02-17T10:10:06.427Z,12.6
2023-02-17T10:11:06.368Z,12.7
2023-02-17T10:12:05.658Z,12.7
2023-02-17T10:13:06.605Z,12.8
2023-02-17T10:14:06.257Z,12.8
2023-02-17T10:15:05.871Z,12.8
2023-02-17T10:16:07.387Z,12
2023-02-17T10:17:06.325Z,12.9
2023-02-17T10:18:06.167Z,13
2023-02-17T10:19:06.066Z,13
2023-02-17T10:20:06.839Z,13.1
2023-02-17T10:21:06.451Z,13.1
2023-02-17T10:22:05.901Z,13.2
2023-02-17T10:23:06.611Z,13.1
2023-02-17T10:24:06.550Z,13.2
2023-02-17T10:25:06.116Z,13.2
2023-02-17T10:26:07.539Z,13.2
2023-02-17T10:27:06.417Z,12
2023-02-17T10:28:06.339Z,13.3
2023-02-17T10:29:06.158Z,13.3
2023-02-17T10:30:06.040Z,13.4
2023-02-17T10:31:05.945Z,13.4
2023-02-17T10:32:06.864Z,13.4
2023-02-17T10:33:06.206Z,13.4
2023-02-17T10:34:06.823Z,13.4
2023-02-17T10:35:06.338Z,13.4
2023-02-17T10:36:06.462Z,13.3
2023-02-17T10:37:06.793Z,13.3
2023-02-17T10:38:06.831Z,13.2
2023-02-17T10:39:06.316Z,13
2023-02-17T10:40:06.136Z,13.3
2023-02-17T10:41:06.004Z,13.2
2023-02-17T10:42:06.522Z,13.2
2023-02-17T10:43:09.570Z,13.2
2023-02-17T10:44:05.789Z,13.2
2023-02-17T10:45:06.513Z,13.3
2023-02-17T10:46:06.712Z,13.3
2023-02-17T10:47:05.819Z,13.3
2023-02-17T10:48:06.830Z,13.3
2023-02-17T10:49:09.201Z,13.3
2023-02-17T10:50:05.988Z,13.3
2023-02-17T10:51:05.796Z,13
2023-02-17T10:52:06.515Z,13.3
2023-02-17T10:53:06.239Z,13.2
2023-02-17T10:54:05.891Z,13.3
2023-02-17T10:55:24.491Z,13
2023-02-17T10:56:07.382Z,13.2
2023-02-17T10:57:06.133Z,13.2
2023-02-17T10:58:06.046Z,13.1
2023-02-17T10:59:05.715Z,13.1
2023-02-17T11:00:06.453Z,13.2
2023-02-17T11:01:07.120Z,13.2
2023-02-17T11:02:06.381Z,13.2
2023-02-17T11:03:06.250Z,13.2
2023-02-17T11:04:06.918Z,13.1
2023-02-17T11:05:06.170Z,13.1
2023-02-17T11:06:06.139Z,13.1
2023-02-17T11:07:05.723Z,13.2
2023-02-17T11:08:06.625Z,13.1
2023-02-17T11:09:06.396Z,13.1
2023-02-17T11:10:06.057Z,13.2
2023-02-17T11:11:05.749Z,13.2
2023-02-17T11:12:06.232Z,13.1
2023-02-17T11:13:05.880Z,13.2
2023-02-17T11:14:06.766Z,13
2023-02-17T11:15:06.411Z,13
2023-02-17T11:16:07.071Z,13.2
2023-02-17T11:17:05.952Z,13.2
2023-02-17T11:18:06.162Z,13.2
2023-02-17T11:19:06.942Z,13.2
2023-02-17T11:20:06.509Z,13.2
2023-02-17T11:21:06.301Z,13
2023-02-17T11:22:06.722Z,13.2
2023-02-17T11:23:06.349Z,13.3
2023-02-17T11:24:06.211Z,13.3
2023-02-17T11:25:05.849Z,13.3
2023-02-17T11:26:07.240Z,13.2
2023-02-17T11:27:06.369Z,13.3
2023-02-17T11:28:06.054Z,13.3
2023-02-17T11:29:06.482Z,13.4
2023-02-17T11:30:06.476Z,13.4
2023-02-17T11:31:06.457Z,13.5
2023-02-17T11:32:06.318Z,13.6
2023-02-17T11:33:06.525Z,13.6
2023-02-17T11:34:06.301Z,13.6
2023-02-17T11:35:05.836Z,13.7
2023-02-17T11:36:07.070Z,13.6
2023-02-17T11:37:06.321Z,13.7
2023-02-17T11:38:06.181Z,13.7
2023-02-17T11:39:06.014Z,13.7
2023-02-17T11:40:06.570Z,13.8
2023-02-17T11:41:06.210Z,13
2023-02-17T11:42:06.104Z,13.8
2023-02-17T11:43:05.819Z,13.9
2023-02-17T11:44:06.467Z,13.9
2023-02-17T11:45:05.968Z,14
2023-02-17T11:46:07.685Z,14
2023-02-17T11:47:06.457Z,14
2023-02-17T11:48:06.078Z,14
2023-02-17T11:49:05.852Z,14.1
2023-02-17T11:50:06.535Z,14
2023-02-17T11:51:06.345Z,14
2023-02-17T11:52:06.152Z,14.4
2023-02-17T11:53:05.781Z,14.4
2023-02-17T11:54:06.362Z,14.5
2023-02-17T11:55:06.158Z,14.6
2023-02-17T11:56:06.129Z,14.6
2023-02-17T11:57:06.432Z,14.7
2023-02-17T11:58:06.175Z,14.7
2023-02-17T11:59:05.956Z,14.7
2023-02-17T12:00:05.822Z,14.7
2023-02-17T12:01:06.522Z,14.7
2023-02-17T12:02:05.986Z,14.6
2023-02-17T12:03:05.922Z,14
2023-02-17T12:04:06.450Z,14.6
2023-02-17T12:05:06.495Z,14.6
2023-02-17T12:06:06.609Z,14.5
2023-02-17T12:07:05.805Z,14.5
2023-02-17T12:08:06.487Z,14.4
2023-02-17T12:09:06.260Z,14.5
2023-02-17T12:10:05.738Z,14.4
2023-02-17T12:11:05.993Z,14
2023-02-17T12:12:06.496Z,14.4
2023-02-17T12:13:06.205Z,14.4
2023-02-17T12:14:05.728Z,14.4
2023-02-17T12:15:06.567Z,14
2023-02-17T12:16:06.582Z,14.3
2023-02-17T12:17:05.709Z,14.3
2023-02-17T12:18:06.672Z,14.2
2023-02-17T12:19:06.276Z,14
2023-02-17T12:20:05.909Z,14
2023-02-17T12:21:06.604Z,13.9
2023-02-17T12:22:06.277Z,13.8
2023-02-17T12:23:06.055Z,13.8
2023-02-17T12:24:06.779Z,13.7
2023-02-17T12:25:07.792Z,13.7
2023-02-17T12:26:06.280Z,13.6
2023-02-17T12:27:06.030Z,13.6
2023-02-17T12:28:05.687Z,13.6
2023-02-17T12:29:06.310Z,13.6
2023-02-17T12:30:06.398Z,13.5
2023-02-17T12:31:09.120Z,13.5
2023-02-17T12:32:06.619Z,13.5
2023-02-17T12:33:05.836Z,13.4
2023-02-17T12:34:06.479Z,13.5
2023-02-17T12:35:05.953Z,13.5
2023-02-17T12:36:05.875Z,13.4
2023-02-17T12:37:06.473Z,13.4
2023-02-17T12:38:06.380Z,13.4
2023-02-17T12:39:05.997Z,13.4
2023-02-17T12:40:06.707Z,13.4
2023-02-17T12:41:06.421Z,13.4
2023-02-17T12:42:06.221Z,13.4
2023-02-17T12:43:05.661Z,13.4
2023-02-17T12:44:06.611Z,13.4
2023-02-17T12:45:06.496Z,13.4
2023-02-17T12:46:06.814Z,13.4
2023-02-17T12:47:05.855Z,13.5
2023-02-17T12:48:05.781Z,13.5
2023-02-17T12:49:08.695Z,13.5
2023-02-17T12:50:06.407Z,13.6
2023-02-17T12:51:06.181Z,13.6
2023-02-17T12:52:05.794Z,13.6
2023-02-17T12:53:06.535Z,13.6
2023-02-17T12:54:05.877Z,13.6
2023-02-17T12:55:05.814Z,13.6
2023-02-17T12:56:07.231Z,13.6
2023-02-17T12:57:06.311Z,13.6
2023-02-17T12:58:06.048Z,13.6
2023-02-17T12:59:05.746Z,13.7
2023-02-17T13:00:06.111Z,13.7
2023-02-17T13:01:09.462Z,13
2023-02-17T13:02:06.186Z,13.8
2023-02-17T13:03:06.526Z,13
2023-02-17T13:04:06.319Z,13.8
2023-02-17T13:05:05.985Z,13.8
2023-02-17T13:06:06.452Z,13.8
2023-02-17T13:07:06.068Z,13.8
2023-02-17T13:08:06.636Z,13.8
2023-02-17T13:09:06.569Z,13.9
2023-02-17T13:10:05.991Z,13.8
2023-02-17T13:11:05.880Z,13.9
2023-02-17T13:12:06.467Z,13.9
2023-02-17T13:13:06.206Z,13.9
2023-02-17T13:14:06.043Z,13.9
2023-02-17T13:15:06.680Z,14
2023-02-17T13:16:07.190Z,14
2023-02-17T13:17:06.147Z,14
2023-02-17T13:18:05.922Z,14.1
2023-02-17T13:19:06.622Z,14.1
2023-02-17T13:20:06.372Z,14.1
2023-02-17T13:21:06.059Z,14.1
2023-02-17T13:22:05.745Z,14.1
2023-02-17T13:23:06.266Z,14
2023-02-17T13:24:05.985Z,14
2023-02-17T13:25:05.643Z,14
2023-02-17T13:26:07.078Z,14
2023-02-17T13:27:06.186Z,14
2023-02-17T13:28:05.936Z,13.9
2023-02-17T13:29:06.605Z,13.9
2023-02-17T13:30:06.440Z,13.9
2023-02-17T13:31:06.514Z,13.8
2023-02-17T13:32:06.915Z,13.8
2023-02-17T13:33:05.902Z,13.8
2023-02-17T13:34:06.480Z,13.7
2023-02-17T13:35:06.091Z,13.7
2023-02-17T13:36:06.382Z,13.7
2023-02-17T13:37:07.847Z,13.7
2023-02-17T13:38:06.374Z,13.6
2023-02-17T13:39:05.962Z,13.6
2023-02-17T13:40:06.621Z,13.6
2023-02-17T13:41:06.286Z,13.6
2023-02-17T13:42:06.226Z,13.6
2023-02-17T13:43:06.024Z,13.6
2023-02-17T13:44:06.617Z,13.6
2023-02-17T13:45:06.281Z,13.6
2023-02-17T13:46:07.236Z,13.6
2023-02-17T13:47:06.336Z,13.6
2023-02-17T13:48:06.016Z,13.6